Date,TemperatureHighF,TemperatureAvgF,TemperatureLowF,DewpointHighF,DewpointAvgF,DewpointLowF,HumidityHigh,HumidityAvg,HumidityLow,PressureMaxIn,PressureMinIn,WindSpeedMaxMPH,WindSpeedAvgMPH,GustSpeedMaxMPH,PrecipitationSumIn
2013-1-1,80,76,74,75,73,71,96,91,84,29.80,29.71,3,2,14,0.57
2013-1-2,84,79,76,77,73,0,91,85,77,29.76,29.70,8,2,5,0.06
2013-1-3,86,78,73,79,73,70,93,85,64,29.76,29.70,13,2,13,0.10
2013-1-4,90,83,75,79,75,73,92,79,62,29.75,29.67,22,4,22,0.17
2013-1-5,89,79,32,76,60,0,89,63,63,29.79,29.69,17,4,25,0.06
2013-1-6,87,79,32,75,70,0,89,75,57,29.80,29.74,16,3,19,0.00
2013-1-7,89,78,32,76,72,-1,95,86,63,29.84,29.73,17,3,20,0.75
2013-1-8,87,79,73,75,72,71,92,81,65,29.82,29.69,17,3,17,0.05
2013-1-9,89,78,75,76,73,71,90,85,65,29.73,29.60,7,1,7,0.00
2013-1-10,90,79,75,76,72,70,87,78,61,29.70,29.61,11,3,12,0.00
2013-1-11,87,80,77,77,75,74,90,87,70,29.76,29.69,8,1,8,0.00
2013-1-12,90,84,77,80,77,73,94,80,70,29.84,29.77,14,3,14,0.19
2013-1-13,88,81,77,76,74,73,89,82,63,29.82,29.75,11,2,11,0.00
2013-1-14,90,81,72,74,72,69,92,75,58,29.80,29.71,12,2,12,0.00
2013-1-15,88,76,73,77,70,69,89,84,69,29.80,29.72,14,4,21,0.00
2013-1-16,81,76,75,75,73,72,94,91,72,29.81,29.74,6,1,11,0.24
2013-1-17,84,76,74,74,72,70,89,86,73,29.80,29.73,7,1,7,0.00
2013-1-18,84,77,73,75,72,70,91,86,73,29.80,29.70,6,1,2,0.00
2013-1-19,77,76,74,75,74,73,96,95,93,29.74,29.61,8,1,9,3.37
2013-1-20,90,81,75,78,75,73,94,82,65,29.72,29.59,7,2,16,0.38
2013-1-21,81,77,76,75,74,73,95,91,84,29.66,29.59,8,2,11,0.13
2013-1-22,82,77,75,79,75,74,96,95,90,29.56,29.42,8,2,14,2.81
2013-1-23,83,80,77,79,78,76,98,93,85,29.44,29.24,24,7,30,3.63
2013-1-24,87,80,76,79,76,73,92,85,74,29.48,29.23,27,6,35,1.48
2013-1-25,89,78,76,78,75,70,95,92,53,29.54,29.42,6,1,6,0.00
2013-1-26,88,84,82,75,72,70,70,67,64,29.57,29.48,21,10,40,0.00
2013-1-27,96,87,80,78,76,74,83,71,56,29.57,29.47,31,12,31,0.06
2013-1-28,101,87,79,84,76,72,86,71,49,29.64,29.50,28,8,32,0.27
2013-1-29,104,89,77,82,75,68,85,65,33,29.66,29.55,36,10,41,0.01
2013-1-30,102,89,32,82,76,32,83,65,39,29.70,29.61,44,11,44,0.00
2013-1-31,92,83,77,82,76,71,86,79,71,29.78,29.72,13,3,13,0.00